sensor_id;sensor_type;location;lat;lon;timestamp;P1;durP1;ratioP1;P2;durP2;ratioP2
22184;SDS011;11258;52.516;13.318;2023-04-16T00:00:09;27.30;;;20.97;;
22184;SDS011;11258;52.516;13.318;2023-04-16T00:02:35;28.17;;;22.10;;
22184;SDS011;11258;52.516;13.318;2023-04-16T00:05:00;26.57;;;20.10;;
22184;SDS011;11258;52.516;13.318;2023-04-16T00:07:26;29.87;;;21.73;;
22184;SDS011;11258;52.516;13.318;2023-04-16T00:09:52;29.70;;;22.23;;
22184;SDS011;11258;52.516;13.318;2023-04-16T00:12:17;30.23;;;22.00;;
22184;SDS011;11258;52.516;13.318;2023-04-16T00:14:43;29.23;;;22.60;;
22184;SDS011;11258;52.516;13.318;2023-04-16T00:17:09;31.03;;;22.30;;
22184;SDS011;11258;52.516;13.318;2023-04-16T00:19:34;29.30;;;22.13;;
22184;SDS011;11258;52.516;13.318;2023-04-16T00:22:00;27.07;;;21.30;;
22184;SDS011;11258;52.516;13.318;2023-04-16T00:24:26;28.27;;;21.37;;
22184;SDS011;11258;52.516;13.318;2023-04-16T00:26:51;34.33;;;22.87;;
22184;SDS011;11258;52.516;13.318;2023-04-16T00:29:17;32.77;;;23.63;;
22184;SDS011;11258;52.516;13.318;2023-04-16T00:31:43;29.67;;;22.70;;
22184;SDS011;11258;52.516;13.318;2023-04-16T00:34:08;31.73;;;23.33;;
22184;SDS011;11258;52.516;13.318;2023-04-16T00:36:34;32.73;;;21.80;;
22184;SDS011;11258;52.516;13.318;2023-04-16T00:39:00;28.27;;;22.27;;
22184;SDS011;11258;52.516;13.318;2023-04-16T00:41:25;29.60;;;22.13;;
22184;SDS011;11258;52.516;13.318;2023-04-16T00:43:51;30.33;;;22.57;;
22184;SDS011;11258;52.516;13.318;2023-04-16T00:46:23;28.57;;;21.57;;
22184;SDS011;11258;52.516;13.318;2023-04-16T00:48:50;27.63;;;22.43;;
22184;SDS011;11258;52.516;13.318;2023-04-16T00:51:19;29.93;;;23.10;;
22184;SDS011;11258;52.516;13.318;2023-04-16T00:53:45;28.73;;;21.43;;
22184;SDS011;11258;52.516;13.318;2023-04-16T00:56:11;27.60;;;21.03;;
22184;SDS011;11258;52.516;13.318;2023-04-16T00:58:37;30.20;;;21.57;;
22184;SDS011;11258;52.516;13.318;2023-04-16T01:01:03;30.47;;;21.43;;
22184;SDS011;11258;52.516;13.318;2023-04-16T01:06:03;29.40;;;19.70;;
22184;SDS011;11258;52.516;13.318;2023-04-16T01:08:30;30.20;;;21.63;;
22184;SDS011;11258;52.516;13.318;2023-04-16T01:10:55;26.07;;;20.30;;
22184;SDS011;11258;52.516;13.318;2023-04-16T01:13:21;28.27;;;21.27;;
22184;SDS011;11258;52.516;13.318;2023-04-16T01:15:47;28.87;;;20.13;;
22184;SDS011;11258;52.516;13.318;2023-04-16T01:18:16;27.73;;;20.30;;
22184;SDS011;11258;52.516;13.318;2023-04-16T01:20:42;25.90;;;20.33;;
22184;SDS011;11258;52.516;13.318;2023-04-16T01:23:08;26.27;;;20.67;;
22184;SDS011;11258;52.516;13.318;2023-04-16T01:25:33;29.07;;;21.83;;
22184;SDS011;11258;52.516;13.318;2023-04-16T01:27:59;28.10;;;20.70;;
22184;SDS011;11258;52.516;13.318;2023-04-16T01:30:25;29.53;;;20.63;;
22184;SDS011;11258;52.516;13.318;2023-04-16T01:32:50;28.93;;;20.87;;
22184;SDS011;11258;52.516;13.318;2023-04-16T01:35:16;25.03;;;19.53;;
22184;SDS011;11258;52.516;13.318;2023-04-16T01:37:42;26.83;;;20.60;;
22184;SDS011;11258;52.516;13.318;2023-04-16T01:40:08;29.67;;;21.07;;
22184;SDS011;11258;52.516;13.318;2023-04-16T01:42:34;29.00;;;20.87;;
22184;SDS011;11258;52.516;13.318;2023-04-16T01:45:00;28.70;;;20.40;;
22184;SDS011;11258;52.516;13.318;2023-04-16T01:47:25;27.03;;;19.20;;
22184;SDS011;11258;52.516;13.318;2023-04-16T01:49:51;26.53;;;20.03;;
22184;SDS011;11258;52.516;13.318;2023-04-16T01:52:17;25.57;;;19.60;;
22184;SDS011;11258;52.516;13.318;2023-04-16T01:54:43;27.33;;;19.83;;
22184;SDS011;11258;52.516;13.318;2023-04-16T01:57:09;27.47;;;20.67;;
22184;SDS011;11258;52.516;13.318;2023-04-16T01:59:35;27.93;;;19.43;;
22184;SDS011;11258;52.516;13.318;2023-04-16T02:02:11;26.93;;;19.63;;
22184;SDS011;11258;52.516;13.318;2023-04-16T02:04:38;26.60;;;19.07;;
22184;SDS011;11258;52.516;13.318;2023-04-16T02:07:05;25.13;;;19.83;;
22184;SDS011;11258;52.516;13.318;2023-04-16T02:09:33;24.13;;;18.33;;
22184;SDS011;11258;52.516;13.318;2023-04-16T02:11:59;29.10;;;20.47;;
22184;SDS011;11258;52.516;13.318;2023-04-16T02:14:26;25.47;;;18.73;;
22184;SDS011;11258;52.516;13.318;2023-04-16T02:16:52;24.20;;;19.07;;
22184;SDS011;11258;52.516;13.318;2023-04-16T02:19:17;24.63;;;18.90;;
22184;SDS011;11258;52.516;13.318;2023-04-16T02:21:43;26.47;;;19.67;;
22184;SDS011;11258;52.516;13.318;2023-04-16T02:24:09;25.20;;;18.67;;
22184;SDS011;11258;52.516;13.318;2023-04-16T02:26:35;26.70;;;19.93;;
22184;SDS011;11258;52.516;13.318;2023-04-16T02:29:00;24.37;;;18.97;;
22184;SDS011;11258;52.516;13.318;2023-04-16T02:31:26;26.07;;;19.20;;
22184;SDS011;11258;52.516;13.318;2023-04-16T02:33:52;25.33;;;19.47;;
22184;SDS011;11258;52.516;13.318;2023-04-16T02:36:18;29.90;;;20.37;;
22184;SDS011;11258;52.516;13.318;2023-04-16T02:38:44;32.93;;;19.30;;
22184;SDS011;11258;52.516;13.318;2023-04-16T02:41:10;27.70;;;19.43;;
22184;SDS011;11258;52.516;13.318;2023-04-16T02:43:35;26.07;;;19.27;;
22184;SDS011;11258;52.516;13.318;2023-04-16T02:46:01;26.63;;;20.10;;
22184;SDS011;11258;52.516;13.318;2023-04-16T02:48:27;28.67;;;20.83;;
22184;SDS011;11258;52.516;13.318;2023-04-16T02:50:52;29.93;;;20.67;;
22184;SDS011;11258;52.516;13.318;2023-04-16T02:53:18;28.20;;;19.93;;
22184;SDS011;11258;52.516;13.318;2023-04-16T02:55:50;30.77;;;20.93;;
22184;SDS011;11258;52.516;13.318;2023-04-16T02:58:20;31.23;;;21.40;;
22184;SDS011;11258;52.516;13.318;2023-04-16T03:00:48;29.97;;;21.73;;
22184;SDS011;11258;52.516;13.318;2023-04-16T03:03:14;29.10;;;22.13;;
22184;SDS011;11258;52.516;13.318;2023-04-16T03:05:39;31.07;;;20.67;;
22184;SDS011;11258;52.516;13.318;2023-04-16T03:08:05;36.77;;;24.07;;
22184;SDS011;11258;52.516;13.318;2023-04-16T03:10:31;30.03;;;21.97;;
22184;SDS011;11258;52.516;13.318;2023-04-16T03:12:56;33.77;;;23.20;;
22184;SDS011;11258;52.516;13.318;2023-04-16T03:15:22;32.13;;;22.93;;
22184;SDS011;11258;52.516;13.318;2023-04-16T03:17:49;35.33;;;22.87;;
22184;SDS011;11258;52.516;13.318;2023-04-16T03:20:15;32.53;;;23.03;;
22184;SDS011;11258;52.516;13.318;2023-04-16T03:22:44;34.27;;;22.57;;
22184;SDS011;11258;52.516;13.318;2023-04-16T03:25:10;30.90;;;21.57;;
22184;SDS011;11258;52.516;13.318;2023-04-16T03:27:36;33.93;;;22.60;;
22184;SDS011;11258;52.516;13.318;2023-04-16T03:30:03;31.83;;;21.10;;
22184;SDS011;11258;52.516;13.318;2023-04-16T03:32:34;32.93;;;21.17;;
22184;SDS011;11258;52.516;13.318;2023-04-16T03:35:01;29.77;;;20.97;;
22184;SDS011;11258;52.516;13.318;2023-04-16T03:37:30;32.67;;;21.07;;
22184;SDS011;11258;52.516;13.318;2023-04-16T03:39:56;28.83;;;20.00;;
22184;SDS011;11258;52.516;13.318;2023-04-16T03:42:22;32.17;;;20.23;;
22184;SDS011;11258;52.516;13.318;2023-04-16T03:44:47;30.97;;;21.10;;
22184;SDS011;11258;52.516;13.318;2023-04-16T03:47:13;31.00;;;20.57;;
22184;SDS011;11258;52.516;13.318;2023-04-16T03:49:39;27.00;;;19.07;;
22184;SDS011;11258;52.516;13.318;2023-04-16T03:52:05;28.87;;;19.33;;
22184;SDS011;11258;52.516;13.318;2023-04-16T03:54:30;28.70;;;19.93;;
22184;SDS011;11258;52.516;13.318;2023-04-16T03:56:56;33.13;;;21.00;;
22184;SDS011;11258;52.516;13.318;2023-04-16T03:59:22;30.10;;;19.57;;
22184;SDS011;11258;52.516;13.318;2023-04-16T04:01:47;25.90;;;19.03;;
22184;SDS011;11258;52.516;13.318;2023-04-16T04:04:13;30.10;;;19.73;;
22184;SDS011;11258;52.516;13.318;2023-04-16T04:06:39;28.40;;;19.10;;
22184;SDS011;11258;52.516;13.318;2023-04-16T04:09:05;30.10;;;20.30;;
22184;SDS011;11258;52.516;13.318;2023-04-16T04:11:31;27.20;;;18.97;;
22184;SDS011;11258;52.516;13.318;2023-04-16T04:13:56;33.23;;;20.23;;
22184;SDS011;11258;52.516;13.318;2023-04-16T04:16:22;28.77;;;19.17;;
22184;SDS011;11258;52.516;13.318;2023-04-16T04:18:48;30.00;;;20.10;;
22184;SDS011;11258;52.516;13.318;2023-04-16T04:21:13;31.87;;;20.40;;
22184;SDS011;11258;52.516;13.318;2023-04-16T04:23:39;34.60;;;21.33;;
22184;SDS011;11258;52.516;13.318;2023-04-16T04:26:06;29.40;;;20.07;;
22184;SDS011;11258;52.516;13.318;2023-04-16T04:28:32;34.77;;;21.83;;
22184;SDS011;11258;52.516;13.318;2023-04-16T04:30:58;33.73;;;21.37;;
22184;SDS011;11258;52.516;13.318;2023-04-16T04:33:24;32.43;;;21.67;;
22184;SDS011;11258;52.516;13.318;2023-04-16T04:35:50;37.67;;;22.10;;
22184;SDS011;11258;52.516;13.318;2023-04-16T04:38:16;33.47;;;22.17;;
22184;SDS011;11258;52.516;13.318;2023-04-16T04:40:46;34.97;;;23.47;;
22184;SDS011;11258;52.516;13.318;2023-04-16T04:43:12;37.47;;;22.70;;
22184;SDS011;11258;52.516;13.318;2023-04-16T04:45:37;34.53;;;22.60;;
22184;SDS011;11258;52.516;13.318;2023-04-16T04:48:03;33.50;;;22.83;;
22184;SDS011;11258;52.516;13.318;2023-04-16T04:50:29;34.83;;;23.20;;
22184;SDS011;11258;52.516;13.318;2023-04-16T04:52:54;33.47;;;22.67;;
22184;SDS011;11258;52.516;13.318;2023-04-16T04:55:20;37.53;;;23.07;;
22184;SDS011;11258;52.516;13.318;2023-04-16T04:57:46;36.10;;;23.57;;
22184;SDS011;11258;52.516;13.318;2023-04-16T05:00:12;34.80;;;22.87;;
22184;SDS011;11258;52.516;13.318;2023-04-16T05:02:38;35.67;;;22.43;;
22184;SDS011;11258;52.516;13.318;2023-04-16T05:05:03;33.60;;;22.40;;
22184;SDS011;11258;52.516;13.318;2023-04-16T05:07:30;36.90;;;22.03;;
22184;SDS011;11258;52.516;13.318;2023-04-16T05:09:56;35.33;;;21.80;;
22184;SDS011;11258;52.516;13.318;2023-04-16T05:12:21;34.43;;;21.73;;
22184;SDS011;11258;52.516;13.318;2023-04-16T05:14:47;35.57;;;21.73;;
22184;SDS011;11258;52.516;13.318;2023-04-16T05:17:13;32.90;;;20.47;;
22184;SDS011;11258;52.516;13.318;2023-04-16T05:19:38;29.27;;;20.53;;
22184;SDS011;11258;52.516;13.318;2023-04-16T05:22:04;34.87;;;22.87;;
22184;SDS011;11258;52.516;13.318;2023-04-16T05:24:30;32.60;;;21.50;;
22184;SDS011;11258;52.516;13.318;2023-04-16T05:26:56;32.00;;;20.97;;
22184;SDS011;11258;52.516;13.318;2023-04-16T05:29:22;29.80;;;20.70;;
22184;SDS011;11258;52.516;13.318;2023-04-16T05:31:47;29.80;;;19.80;;
22184;SDS011;11258;52.516;13.318;2023-04-16T05:34:13;31.87;;;20.07;;
22184;SDS011;11258;52.516;13.318;2023-04-16T05:36:39;31.80;;;19.87;;
22184;SDS011;11258;52.516;13.318;2023-04-16T05:39:04;27.40;;;19.40;;
22184;SDS011;11258;52.516;13.318;2023-04-16T05:41:31;30.57;;;20.37;;
22184;SDS011;11258;52.516;13.318;2023-04-16T05:43:57;31.63;;;19.33;;
22184;SDS011;11258;52.516;13.318;2023-04-16T05:46:23;29.27;;;19.40;;
22184;SDS011;11258;52.516;13.318;2023-04-16T05:48:48;27.43;;;19.80;;
22184;SDS011;11258;52.516;13.318;2023-04-16T05:51:14;30.27;;;19.40;;
22184;SDS011;11258;52.516;13.318;2023-04-16T05:53:40;28.60;;;19.53;;
22184;SDS011;11258;52.516;13.318;2023-04-16T05:56:06;28.93;;;19.27;;
22184;SDS011;11258;52.516;13.318;2023-04-16T05:58:32;28.80;;;19.37;;
22184;SDS011;11258;52.516;13.318;2023-04-16T06:00:57;30.23;;;18.47;;
22184;SDS011;11258;52.516;13.318;2023-04-16T06:03:25;27.83;;;17.20;;
22184;SDS011;11258;52.516;13.318;2023-04-16T06:05:50;24.27;;;17.27;;
22184;SDS011;11258;52.516;13.318;2023-04-16T06:08:16;28.77;;;17.93;;
22184;SDS011;11258;52.516;13.318;2023-04-16T06:10:42;27.30;;;17.80;;
22184;SDS011;11258;52.516;13.318;2023-04-16T06:13:09;23.00;;;15.80;;
22184;SDS011;11258;52.516;13.318;2023-04-16T06:15:35;23.90;;;17.57;;
22184;SDS011;11258;52.516;13.318;2023-04-16T06:18:00;22.50;;;16.67;;
22184;SDS011;11258;52.516;13.318;2023-04-16T06:20:26;24.13;;;16.37;;
22184;SDS011;11258;52.516;13.318;2023-04-16T06:22:52;24.87;;;17.17;;
22184;SDS011;11258;52.516;13.318;2023-04-16T06:25:17;26.07;;;17.07;;
22184;SDS011;11258;52.516;13.318;2023-04-16T06:27:43;29.97;;;18.13;;
22184;SDS011;11258;52.516;13.318;2023-04-16T06:30:12;26.93;;;17.33;;
22184;SDS011;11258;52.516;13.318;2023-04-16T06:32:38;27.37;;;18.43;;
22184;SDS011;11258;52.516;13.318;2023-04-16T06:35:04;23.53;;;16.93;;
22184;SDS011;11258;52.516;13.318;2023-04-16T06:37:30;27.43;;;17.30;;
22184;SDS011;11258;52.516;13.318;2023-04-16T06:39:56;26.57;;;17.20;;
22184;SDS011;11258;52.516;13.318;2023-04-16T06:42:22;23.40;;;16.57;;
22184;SDS011;11258;52.516;13.318;2023-04-16T06:44:47;24.03;;;16.67;;
22184;SDS011;11258;52.516;13.318;2023-04-16T06:47:13;23.33;;;17.13;;
22184;SDS011;11258;52.516;13.318;2023-04-16T06:49:40;28.70;;;18.13;;
22184;SDS011;11258;52.516;13.318;2023-04-16T06:52:05;28.17;;;18.17;;
22184;SDS011;11258;52.516;13.318;2023-04-16T06:54:31;24.83;;;17.27;;
22184;SDS011;11258;52.516;13.318;2023-04-16T06:56:57;24.73;;;17.97;;
22184;SDS011;11258;52.516;13.318;2023-04-16T06:59:22;27.27;;;18.40;;
22184;SDS011;11258;52.516;13.318;2023-04-16T07:01:48;28.97;;;18.93;;
22184;SDS011;11258;52.516;13.318;2023-04-16T07:04:13;25.70;;;17.53;;
22184;SDS011;11258;52.516;13.318;2023-04-16T07:06:39;27.33;;;18.47;;
22184;SDS011;11258;52.516;13.318;2023-04-16T07:09:05;28.63;;;18.80;;
22184;SDS011;11258;52.516;13.318;2023-04-16T07:11:30;30.60;;;19.07;;
22184;SDS011;11258;52.516;13.318;2023-04-16T07:13:56;29.40;;;18.80;;
22184;SDS011;11258;52.516;13.318;2023-04-16T07:16:22;25.87;;;17.83;;
22184;SDS011;11258;52.516;13.318;2023-04-16T07:18:48;28.53;;;19.27;;
22184;SDS011;11258;52.516;13.318;2023-04-16T07:21:14;28.70;;;18.67;;
22184;SDS011;11258;52.516;13.318;2023-04-16T07:23:40;28.60;;;19.37;;
22184;SDS011;11258;52.516;13.318;2023-04-16T07:26:05;26.90;;;18.63;;
22184;SDS011;11258;52.516;13.318;2023-04-16T07:28:31;28.73;;;18.03;;
22184;SDS011;11258;52.516;13.318;2023-04-16T07:30:57;28.40;;;19.07;;
22184;SDS011;11258;52.516;13.318;2023-04-16T07:33:23;24.50;;;17.73;;
22184;SDS011;11258;52.516;13.318;2023-04-16T07:35:48;31.00;;;19.57;;
22184;SDS011;11258;52.516;13.318;2023-04-16T07:38:15;29.43;;;18.53;;
22184;SDS011;11258;52.516;13.318;2023-04-16T07:40:40;26.47;;;18.17;;
22184;SDS011;11258;52.516;13.318;2023-04-16T07:43:06;26.77;;;17.10;;
22184;SDS011;11258;52.516;13.318;2023-04-16T07:45:32;26.07;;;18.57;;
22184;SDS011;11258;52.516;13.318;2023-04-16T07:47:58;26.83;;;17.33;;
22184;SDS011;11258;52.516;13.318;2023-04-16T07:50:23;23.37;;;16.13;;
22184;SDS011;11258;52.516;13.318;2023-04-16T07:52:49;25.17;;;16.37;;
22184;SDS011;11258;52.516;13.318;2023-04-16T07:55:15;25.23;;;16.53;;
22184;SDS011;11258;52.516;13.318;2023-04-16T07:57:41;27.53;;;16.30;;
22184;SDS011;11258;52.516;13.318;2023-04-16T08:00:07;28.47;;;17.80;;
22184;SDS011;11258;52.516;13.318;2023-04-16T08:02:33;26.63;;;17.00;;
22184;SDS011;11258;52.516;13.318;2023-04-16T08:04:59;26.07;;;15.77;;
22184;SDS011;11258;52.516;13.318;2023-04-16T08:07:25;24.83;;;16.20;;
22184;SDS011;11258;52.516;13.318;2023-04-16T08:09:51;25.77;;;17.10;;
22184;SDS011;11258;52.516;13.318;2023-04-16T08:12:17;25.97;;;16.20;;
22184;SDS011;11258;52.516;13.318;2023-04-16T08:14:43;24.37;;;17.10;;
22184;SDS011;11258;52.516;13.318;2023-04-16T08:17:12;24.17;;;15.77;;
22184;SDS011;11258;52.516;13.318;2023-04-16T08:19:39;24.80;;;16.47;;
22184;SDS011;11258;52.516;13.318;2023-04-16T08:22:05;21.43;;;14.43;;
22184;SDS011;11258;52.516;13.318;2023-04-16T08:24:30;24.67;;;16.87;;
22184;SDS011;11258;52.516;13.318;2023-04-16T08:26:56;20.87;;;14.93;;
22184;SDS011;11258;52.516;13.318;2023-04-16T08:29:22;21.90;;;14.57;;
22184;SDS011;11258;52.516;13.318;2023-04-16T08:31:50;21.77;;;15.13;;
22184;SDS011;11258;52.516;13.318;2023-04-16T08:34:16;22.87;;;16.00;;
22184;SDS011;11258;52.516;13.318;2023-04-16T08:36:41;25.30;;;15.17;;
22184;SDS011;11258;52.516;13.318;2023-04-16T08:39:07;23.30;;;15.30;;
22184;SDS011;11258;52.516;13.318;2023-04-16T08:41:33;20.53;;;13.93;;
22184;SDS011;11258;52.516;13.318;2023-04-16T08:44:01;22.03;;;15.13;;
22184;SDS011;11258;52.516;13.318;2023-04-16T08:46:31;19.47;;;13.83;;
22184;SDS011;11258;52.516;13.318;2023-04-16T08:49:00;19.13;;;13.40;;
22184;SDS011;11258;52.516;13.318;2023-04-16T08:51:29;18.87;;;13.90;;
22184;SDS011;11258;52.516;13.318;2023-04-16T08:54:01;18.70;;;13.90;;
22184;SDS011;11258;52.516;13.318;2023-04-16T08:56:28;20.47;;;13.87;;
22184;SDS011;11258;52.516;13.318;2023-04-16T08:58:56;20.23;;;14.50;;
22184;SDS011;11258;52.516;13.318;2023-04-16T09:01:23;20.73;;;14.47;;
22184;SDS011;11258;52.516;13.318;2023-04-16T09:03:50;21.27;;;15.17;;
22184;SDS011;11258;52.516;13.318;2023-04-16T09:06:17;23.10;;;16.30;;
22184;SDS011;11258;52.516;13.318;2023-04-16T09:08:43;20.13;;;15.10;;
22184;SDS011;11258;52.516;13.318;2023-04-16T09:11:10;19.80;;;14.67;;
22184;SDS011;11258;52.516;13.318;2023-04-16T09:13:37;22.10;;;14.53;;
22184;SDS011;11258;52.516;13.318;2023-04-16T09:16:03;17.37;;;13.40;;
22184;SDS011;11258;52.516;13.318;2023-04-16T09:18:31;18.43;;;13.93;;
22184;SDS011;11258;52.516;13.318;2023-04-16T09:20:56;23.20;;;13.40;;
22184;SDS011;11258;52.516;13.318;2023-04-16T09:23:22;18.90;;;13.37;;
22184;SDS011;11258;52.516;13.318;2023-04-16T09:25:49;19.43;;;14.27;;
22184;SDS011;11258;52.516;13.318;2023-04-16T09:31:06;18.90;;;13.13;;
22184;SDS011;11258;52.516;13.318;2023-04-16T09:33:39;18.43;;;12.67;;
22184;SDS011;11258;52.516;13.318;2023-04-16T09:36:06;17.70;;;13.20;;
22184;SDS011;11258;52.516;13.318;2023-04-16T09:38:48;18.47;;;13.97;;
22184;SDS011;11258;52.516;13.318;2023-04-16T09:41:16;16.97;;;12.80;;
22184;SDS011;11258;52.516;13.318;2023-04-16T09:43:48;17.07;;;12.57;;
22184;SDS011;11258;52.516;13.318;2023-04-16T09:46:20;18.33;;;14.13;;
22184;SDS011;11258;52.516;13.318;2023-04-16T09:48:45;19.63;;;15.07;;
22184;SDS011;11258;52.516;13.318;2023-04-16T09:51:11;23.90;;;15.33;;
22184;SDS011;11258;52.516;13.318;2023-04-16T09:53:37;19.57;;;14.40;;
22184;SDS011;11258;52.516;13.318;2023-04-16T09:56:04;20.23;;;14.27;;
22184;SDS011;11258;52.516;13.318;2023-04-16T09:58:30;23.30;;;14.50;;
22184;SDS011;11258;52.516;13.318;2023-04-16T10:01:00;20.43;;;14.03;;
22184;SDS011;11258;52.516;13.318;2023-04-16T10:03:33;21.57;;;15.07;;
22184;SDS011;11258;52.516;13.318;2023-04-16T10:06:02;21.50;;;14.53;;
22184;SDS011;11258;52.516;13.318;2023-04-16T10:08:32;22.73;;;15.50;;
22184;SDS011;11258;52.516;13.318;2023-04-16T10:10:58;24.17;;;15.63;;
22184;SDS011;11258;52.516;13.318;2023-04-16T10:13:24;24.83;;;16.23;;
22184;SDS011;11258;52.516;13.318;2023-04-16T10:15:55;24.43;;;17.30;;
22184;SDS011;11258;52.516;13.318;2023-04-16T10:18:21;23.30;;;16.20;;
22184;SDS011;11258;52.516;13.318;2023-04-16T10:20:48;24.43;;;16.47;;
22184;SDS011;11258;52.516;13.318;2023-04-16T10:23:18;33.17;;;21.67;;
22184;SDS011;11258;52.516;13.318;2023-04-16T10:25:47;28.40;;;18.43;;
22184;SDS011;11258;52.516;13.318;2023-04-16T10:28:13;25.77;;;17.27;;
22184;SDS011;11258;52.516;13.318;2023-04-16T10:30:40;23.50;;;16.30;;
22184;SDS011;11258;52.516;13.318;2023-04-16T10:33:17;26.27;;;16.47;;
22184;SDS011;11258;52.516;13.318;2023-04-16T10:35:44;23.83;;;19.02;;
22184;SDS011;11258;52.516;13.318;2023-04-16T10:41:06;25.47;;;17.47;;
22184;SDS011;11258;52.516;13.318;2023-04-16T10:43:39;26.70;;;18.10;;
22184;SDS011;11258;52.516;13.318;2023-04-16T10:46:22;27.13;;;18.37;;
22184;SDS011;11258;52.516;13.318;2023-04-16T10:48:54;26.00;;;18.63;;
22184;SDS011;11258;52.516;13.318;2023-04-16T10:51:27;26.67;;;17.50;;
22184;SDS011;11258;52.516;13.318;2023-04-16T10:56:33;25.53;;;17.50;;
22184;SDS011;11258;52.516;13.318;2023-04-16T10:59:00;25.90;;;17.53;;
22184;SDS011;11258;52.516;13.318;2023-04-16T11:01:32;26.60;;;17.93;;
22184;SDS011;11258;52.516;13.318;2023-04-16T11:04:00;23.13;;;17.13;;
22184;SDS011;11258;52.516;13.318;2023-04-16T11:15:08;23.27;;;17.02;;
22184;SDS011;11258;52.516;13.318;2023-04-16T11:17:39;22.02;;;16.48;;
22184;SDS011;11258;52.516;13.318;2023-04-16T11:20:19;22.10;;;16.20;;
22184;SDS011;11258;52.516;13.318;2023-04-16T11:22:47;22.98;;;17.45;;
22184;SDS011;11258;52.516;13.318;2023-04-16T11:25:20;22.05;;;16.48;;
22184;SDS011;11258;52.516;13.318;2023-04-16T11:27:46;21.80;;;16.75;;
22184;SDS011;11258;52.516;13.318;2023-04-16T11:30:12;22.17;;;16.23;;
22184;SDS011;11258;52.516;13.318;2023-04-16T11:32:38;25.63;;;18.15;;
22184;SDS011;11258;52.516;13.318;2023-04-16T11:35:12;25.83;;;18.27;;
22184;SDS011;11258;52.516;13.318;2023-04-16T11:37:40;22.53;;;16.03;;
22184;SDS011;11258;52.516;13.318;2023-04-16T11:40:06;17.90;;;14.25;;
22184;SDS011;11258;52.516;13.318;2023-04-16T11:42:36;21.63;;;15.60;;
22184;SDS011;11258;52.516;13.318;2023-04-16T11:45:04;20.03;;;15.73;;
22184;SDS011;11258;52.516;13.318;2023-04-16T11:47:34;21.05;;;14.70;;
22184;SDS011;11258;52.516;13.318;2023-04-16T11:50:17;17.53;;;14.43;;
22184;SDS011;11258;52.516;13.318;2023-04-16T11:52:47;20.30;;;13.57;;
22184;SDS011;11258;52.516;13.318;2023-04-16T11:55:14;14.63;;;12.00;;
22184;SDS011;11258;52.516;13.318;2023-04-16T11:57:40;16.27;;;13.07;;
22184;SDS011;11258;52.516;13.318;2023-04-16T12:00:05;13.27;;;10.80;;
22184;SDS011;11258;52.516;13.318;2023-04-16T12:02:38;15.20;;;11.80;;
22184;SDS011;11258;52.516;13.318;2023-04-16T12:08:09;13.13;;;10.93;;
22184;SDS011;11258;52.516;13.318;2023-04-16T12:10:37;15.00;;;10.70;;
22184;SDS011;11258;52.516;13.318;2023-04-16T12:13:17;14.53;;;11.30;;
22184;SDS011;11258;52.516;13.318;2023-04-16T12:15:47;12.97;;;10.63;;
22184;SDS011;11258;52.516;13.318;2023-04-16T12:18:22;14.40;;;10.77;;
22184;SDS011;11258;52.516;13.318;2023-04-16T12:20:50;12.80;;;11.00;;
22184;SDS011;11258;52.516;13.318;2023-04-16T12:23:32;14.63;;;11.33;;
22184;SDS011;11258;52.516;13.318;2023-04-16T12:25:58;13.60;;;10.10;;
22184;SDS011;11258;52.516;13.318;2023-04-16T12:28:34;12.43;;;9.13;;
22184;SDS011;11258;52.516;13.318;2023-04-16T12:31:02;11.97;;;9.57;;
22184;SDS011;11258;52.516;13.318;2023-04-16T12:33:28;11.20;;;9.20;;
22184;SDS011;11258;52.516;13.318;2023-04-16T12:35:54;12.80;;;9.80;;
22184;SDS011;11258;52.516;13.318;2023-04-16T12:38:20;14.30;;;10.20;;
22184;SDS011;11258;52.516;13.318;2023-04-16T12:40:46;12.27;;;9.10;;
22184;SDS011;11258;52.516;13.318;2023-04-16T12:43:11;11.67;;;9.13;;
22184;SDS011;11258;52.516;13.318;2023-04-16T12:45:38;14.30;;;9.50;;
22184;SDS011;11258;52.516;13.318;2023-04-16T12:48:04;10.77;;;9.43;;
22184;SDS011;11258;52.516;13.318;2023-04-16T12:50:30;12.87;;;10.20;;
22184;SDS011;11258;52.516;13.318;2023-04-16T12:52:56;10.80;;;8.90;;
22184;SDS011;11258;52.516;13.318;2023-04-16T12:55:23;13.90;;;9.03;;
22184;SDS011;11258;52.516;13.318;2023-04-16T12:57:49;10.20;;;8.80;;
22184;SDS011;11258;52.516;13.318;2023-04-16T13:00:16;11.77;;;9.60;;
22184;SDS011;11258;52.516;13.318;2023-04-16T13:02:43;13.23;;;9.60;;
22184;SDS011;11258;52.516;13.318;2023-04-16T13:05:09;13.67;;;9.87;;
22184;SDS011;11258;52.516;13.318;2023-04-16T13:07:35;11.43;;;9.30;;
22184;SDS011;11258;52.516;13.318;2023-04-16T13:10:00;10.80;;;8.77;;
22184;SDS011;11258;52.516;13.318;2023-04-16T13:12:26;14.27;;;10.67;;
22184;SDS011;11258;52.516;13.318;2023-04-16T13:14:52;15.47;;;10.43;;
22184;SDS011;11258;52.516;13.318;2023-04-16T13:17:19;13.83;;;10.20;;
22184;SDS011;11258;52.516;13.318;2023-04-16T13:19:44;12.13;;;9.70;;
22184;SDS011;11258;52.516;13.318;2023-04-16T13:22:10;13.87;;;10.60;;
22184;SDS011;11258;52.516;13.318;2023-04-16T13:24:36;17.43;;;10.93;;
22184;SDS011;11258;52.516;13.318;2023-04-16T13:27:02;15.07;;;10.83;;
22184;SDS011;11258;52.516;13.318;2023-04-16T13:29:28;15.63;;;10.63;;
22184;SDS011;11258;52.516;13.318;2023-04-16T13:31:54;11.63;;;9.63;;
22184;SDS011;11258;52.516;13.318;2023-04-16T13:34:20;13.43;;;10.53;;
22184;SDS011;11258;52.516;13.318;2023-04-16T13:36:46;13.27;;;10.47;;
22184;SDS011;11258;52.516;13.318;2023-04-16T13:39:12;13.77;;;10.23;;
22184;SDS011;11258;52.516;13.318;2023-04-16T13:41:38;13.47;;;10.07;;
22184;SDS011;11258;52.516;13.318;2023-04-16T13:44:04;14.03;;;9.90;;
22184;SDS011;11258;52.516;13.318;2023-04-16T13:46:30;12.50;;;10.10;;
22184;SDS011;11258;52.516;13.318;2023-04-16T13:48:56;11.97;;;10.00;;
22184;SDS011;11258;52.516;13.318;2023-04-16T13:51:21;14.90;;;10.70;;
22184;SDS011;11258;52.516;13.318;2023-04-16T13:53:47;13.27;;;9.23;;
22184;SDS011;11258;52.516;13.318;2023-04-16T13:56:13;12.83;;;9.70;;
22184;SDS011;11258;52.516;13.318;2023-04-16T13:58:39;14.03;;;10.00;;
22184;SDS011;11258;52.516;13.318;2023-04-16T14:01:05;11.87;;;9.63;;
22184;SDS011;11258;52.516;13.318;2023-04-16T14:03:31;11.63;;;9.18;;
22184;SDS011;11258;52.516;13.318;2023-04-16T14:05:59;12.37;;;8.83;;
22184;SDS011;11258;52.516;13.318;2023-04-16T14:08:28;11.80;;;9.17;;
22184;SDS011;11258;52.516;13.318;2023-04-16T14:10:55;12.33;;;8.80;;
22184;SDS011;11258;52.516;13.318;2023-04-16T14:13:21;12.07;;;9.20;;
22184;SDS011;11258;52.516;13.318;2023-04-16T14:15:47;12.43;;;9.52;;
22184;SDS011;11258;52.516;13.318;2023-04-16T14:18:12;12.70;;;9.00;;
22184;SDS011;11258;52.516;13.318;2023-04-16T14:20:38;12.97;;;8.90;;
22184;SDS011;11258;52.516;13.318;2023-04-16T14:23:04;9.15;;;8.05;;
22184;SDS011;11258;52.516;13.318;2023-04-16T14:25:30;11.03;;;8.37;;
22184;SDS011;11258;52.516;13.318;2023-04-16T14:27:57;12.43;;;9.00;;
22184;SDS011;11258;52.516;13.318;2023-04-16T14:30:24;10.20;;;7.63;;